sensor_id;sensor_type;location;lat;lon;timestamp;temperature;humidity
68098;DHT22;54886;47.036;15.466;2024-01-15T00:01:02;-2.32;82.99
68098;DHT22;54886;47.036;15.466;2024-01-15T00:03:28;-2.32;83.03
68098;DHT22;54886;47.036;15.466;2024-01-15T00:05:54;-2.35;83.22
68098;DHT22;54886;47.036;15.466;2024-01-15T00:08:19;-2.30;83.27
68098;DHT22;54886;47.036;15.466;2024-01-15T00:10:44;-2.33;83.33
68098;DHT22;54886;47.036;15.466;2024-01-15T00:13:10;-2.33;83.40
68098;DHT22;54886;47.036;15.466;2024-01-15T00:15:35;-2.32;83.38
68098;DHT22;54886;47.036;15.466;2024-01-15T00:18:01;-2.33;83.29
68098;DHT22;54886;47.036;15.466;2024-01-15T00:20:26;-2.30;83.15
68098;DHT22;54886;47.036;15.466;2024-01-15T00:22:52;-2.30;83.01
68098;DHT22;54886;47.036;15.466;2024-01-15T00:25:17;-2.30;83.04
68098;DHT22;54886;47.036;15.466;2024-01-15T00:27:43;-2.28;83.06
68098;DHT22;54886;47.036;15.466;2024-01-15T00:30:08;-2.30;83.09
68098;DHT22;54886;47.036;15.466;2024-01-15T00:32:34;-2.30;83.14
68098;DHT22;54886;47.036;15.466;2024-01-15T00:34:59;-2.32;83.19
68098;DHT22;54886;47.036;15.466;2024-01-15T00:37:25;-2.28;83.09
68098;DHT22;54886;47.036;15.466;2024-01-15T00:39:50;-2.30;83.02
68098;DHT22;54886;47.036;15.466;2024-01-15T00:42:15;-2.30;83.00
68098;DHT22;54886;47.036;15.466;2024-01-15T00:44:42;-2.32;83.05
68098;DHT22;54886;47.036;15.466;2024-01-15T00:47:07;-2.32;82.99
68098;DHT22;54886;47.036;15.466;2024-01-15T00:49:33;-2.38;82.90
68098;DHT22;54886;47.036;15.466;2024-01-15T00:51:58;-2.38;82.96
68098;DHT22;54886;47.036;15.466;2024-01-15T00:54:23;-2.39;82.72
68098;DHT22;54886;47.036;15.466;2024-01-15T00:56:49;-2.38;82.73
68098;DHT22;54886;47.036;15.466;2024-01-15T00:59:14;-2.40;82.91
68098;DHT22;54886;47.036;15.466;2024-01-15T01:01:41;-2.40;82.89
68098;DHT22;54886;47.036;15.466;2024-01-15T01:04:09;-2.43;82.88
68098;DHT22;54886;47.036;15.466;2024-01-15T01:06:34;-2.49;82.86
68098;DHT22;54886;47.036;15.466;2024-01-15T01:09:00;-2.54;83.02
68098;DHT22;54886;47.036;15.466;2024-01-15T01:11:25;-2.53;83.08
68098;DHT22;54886;47.036;15.466;2024-01-15T01:13:51;-2.61;83.46
68098;DHT22;54886;47.036;15.466;2024-01-15T01:16:16;-2.63;83.36
68098;DHT22;54886;47.036;15.466;2024-01-15T01:18:42;-2.64;83.48
68098;DHT22;54886;47.036;15.466;2024-01-15T01:21:07;-2.58;83.25
68098;DHT22;54886;47.036;15.466;2024-01-15T01:23:33;-2.68;83.33
68098;DHT22;54886;47.036;15.466;2024-01-15T01:25:58;-2.68;83.58
68098;DHT22;54886;47.036;15.466;2024-01-15T01:28:23;-2.67;83.56
68098;DHT22;54886;47.036;15.466;2024-01-15T01:30:49;-2.63;83.46
68098;DHT22;54886;47.036;15.466;2024-01-15T01:33:14;-2.67;83.45
68098;DHT22;54886;47.036;15.466;2024-01-15T01:35:39;-2.66;83.55
68098;DHT22;54886;47.036;15.466;2024-01-15T01:38:05;-2.66;83.52
68098;DHT22;54886;47.036;15.466;2024-01-15T01:40:30;-2.71;83.72
68098;DHT22;54886;47.036;15.466;2024-01-15T01:42:56;-2.73;83.88
68098;DHT22;54886;47.036;15.466;2024-01-15T01:45:21;-2.70;83.83
68098;DHT22;54886;47.036;15.466;2024-01-15T01:47:46;-2.70;83.56
68098;DHT22;54886;47.036;15.466;2024-01-15T01:50:12;-2.64;83.55
68098;DHT22;54886;47.036;15.466;2024-01-15T01:52:38;-2.67;83.78
68098;DHT22;54886;47.036;15.466;2024-01-15T01:55:06;-2.70;83.67
68098;DHT22;54886;47.036;15.466;2024-01-15T01:57:32;-2.71;83.67
68098;DHT22;54886;47.036;15.466;2024-01-15T01:59:59;-2.67;83.41
68098;DHT22;54886;47.036;15.466;2024-01-15T02:02:25;-2.71;83.50
68098;DHT22;54886;47.036;15.466;2024-01-15T02:04:51;-2.70;83.75
68098;DHT22;54886;47.036;15.466;2024-01-15T02:07:16;-2.74;83.74
68098;DHT22;54886;47.036;15.466;2024-01-15T02:09:44;-2.73;83.66
68098;DHT22;54886;47.036;15.466;2024-01-15T02:12:10;-2.74;83.81
68098;DHT22;54886;47.036;15.466;2024-01-15T02:14:35;-2.73;83.81
68098;DHT22;54886;47.036;15.466;2024-01-15T02:17:01;-2.80;84.10
68098;DHT22;54886;47.036;15.466;2024-01-15T02:19:26;-2.84;84.25
68098;DHT22;54886;47.036;15.466;2024-01-15T02:21:52;-2.83;83.84
68098;DHT22;54886;47.036;15.466;2024-01-15T02:24:17;-2.77;83.79
68098;DHT22;54886;47.036;15.466;2024-01-15T02:26:43;-2.81;83.79
68098;DHT22;54886;47.036;15.466;2024-01-15T02:29:09;-2.77;83.76
68098;DHT22;54886;47.036;15.466;2024-01-15T02:31:36;-2.73;83.76
68098;DHT22;54886;47.036;15.466;2024-01-15T02:34:01;-2.75;83.64
68098;DHT22;54886;47.036;15.466;2024-01-15T02:36:27;-2.73;83.56
68098;DHT22;54886;47.036;15.466;2024-01-15T02:38:52;-2.71;83.43
68098;DHT22;54886;47.036;15.466;2024-01-15T02:41:18;-2.73;83.52
68098;DHT22;54886;47.036;15.466;2024-01-15T02:43:43;-2.75;83.48
68098;DHT22;54886;47.036;15.466;2024-01-15T02:46:09;-2.78;83.75
68098;DHT22;54886;47.036;15.466;2024-01-15T02:48:34;-2.80;83.68
68098;DHT22;54886;47.036;15.466;2024-01-15T02:51:02;-2.81;83.58
68098;DHT22;54886;47.036;15.466;2024-01-15T02:53:28;-2.81;83.62
68098;DHT22;54886;47.036;15.466;2024-01-15T02:55:53;-2.85;83.66
68098;DHT22;54886;47.036;15.466;2024-01-15T02:58:18;-2.85;83.67
68098;DHT22;54886;47.036;15.466;2024-01-15T03:00:44;-2.85;83.91
68098;DHT22;54886;47.036;15.466;2024-01-15T03:03:09;-2.85;83.79
68098;DHT22;54886;47.036;15.466;2024-01-15T03:05:35;-2.85;83.71
68098;DHT22;54886;47.036;15.466;2024-01-15T03:08:00;-2.88;84.11
68098;DHT22;54886;47.036;15.466;2024-01-15T03:10:25;-2.91;84.13
68098;DHT22;54886;47.036;15.466;2024-01-15T03:12:51;-2.85;83.89
68098;DHT22;54886;47.036;15.466;2024-01-15T03:15:16;-2.89;84.07
68098;DHT22;54886;47.036;15.466;2024-01-15T03:17:43;-2.87;83.76
68098;DHT22;54886;47.036;15.466;2024-01-15T03:20:09;-2.87;83.66
68098;DHT22;54886;47.036;15.466;2024-01-15T03:22:34;-2.92;83.77
68098;DHT22;54886;47.036;15.466;2024-01-15T03:25:00;-2.91;83.84
68098;DHT22;54886;47.036;15.466;2024-01-15T03:27:25;-2.89;83.84
68098;DHT22;54886;47.036;15.466;2024-01-15T03:29:51;-2.89;83.68
68098;DHT22;54886;47.036;15.466;2024-01-15T03:32:16;-2.85;83.49
68098;DHT22;54886;47.036;15.466;2024-01-15T03:34:42;-2.85;83.39
68098;DHT22;54886;47.036;15.466;2024-01-15T03:37:07;-2.83;83.35
68098;DHT22;54886;47.036;15.466;2024-01-15T03:39:32;-2.84;83.37
68098;DHT22;54886;47.036;15.466;2024-01-15T03:41:58;-2.87;83.23
68098;DHT22;54886;47.036;15.466;2024-01-15T03:44:23;-2.83;83.30
68098;DHT22;54886;47.036;15.466;2024-01-15T03:46:49;-2.87;83.39
68098;DHT22;54886;47.036;15.466;2024-01-15T03:49:14;-2.85;83.35
68098;DHT22;54886;47.036;15.466;2024-01-15T03:51:40;-2.83;83.28
68098;DHT22;54886;47.036;15.466;2024-01-15T03:54:05;-2.85;83.29
68098;DHT22;54886;47.036;15.466;2024-01-15T03:56:30;-2.85;83.36
68098;DHT22;54886;47.036;15.466;2024-01-15T03:58:56;-2.87;83.39
68098;DHT22;54886;47.036;15.466;2024-01-15T04:01:21;-2.87;83.66
68098;DHT22;54886;47.036;15.466;2024-01-15T04:03:47;-2.91;83.65
68098;DHT22;54886;47.036;15.466;2024-01-15T04:06:12;-2.88;83.70
68098;DHT22;54886;47.036;15.466;2024-01-15T04:08:37;-2.88;83.70
68098;DHT22;54886;47.036;15.466;2024-01-15T04:11:03;-2.89;83.66
68098;DHT22;54886;47.036;15.466;2024-01-15T04:13:32;-2.87;83.61
68098;DHT22;54886;47.036;15.466;2024-01-15T04:15:57;-2.96;83.76
68098;DHT22;54886;47.036;15.466;2024-01-15T04:18:23;-2.96;83.77
68098;DHT22;54886;47.036;15.466;2024-01-15T04:20:48;-2.94;83.69
68098;DHT22;54886;47.036;15.466;2024-01-15T04:23:13;-3.01;83.73
68098;DHT22;54886;47.036;15.466;2024-01-15T04:25:39;-2.95;83.66
68098;DHT22;54886;47.036;15.466;2024-01-15T04:28:10;-2.94;83.65
68098;DHT22;54886;47.036;15.466;2024-01-15T04:30:35;-2.99;83.59
68098;DHT22;54886;47.036;15.466;2024-01-15T04:33:01;-3.01;83.57
68098;DHT22;54886;47.036;15.466;2024-01-15T04:35:26;-2.96;83.47
68098;DHT22;54886;47.036;15.466;2024-01-15T04:37:52;-2.99;83.63
68098;DHT22;54886;47.036;15.466;2024-01-15T04:40:17;-2.99;83.61
68098;DHT22;54886;47.036;15.466;2024-01-15T04:42:42;-3.04;83.48
68098;DHT22;54886;47.036;15.466;2024-01-15T04:45:08;-2.99;83.41
68098;DHT22;54886;47.036;15.466;2024-01-15T04:47:34;-2.98;83.25
68098;DHT22;54886;47.036;15.466;2024-01-15T04:49:59;-2.99;83.39
68098;DHT22;54886;47.036;15.466;2024-01-15T04:52:24;-2.98;83.33
68098;DHT22;54886;47.036;15.466;2024-01-15T04:54:50;-3.02;83.34
68098;DHT22;54886;47.036;15.466;2024-01-15T04:57:15;-3.01;83.20
68098;DHT22;54886;47.036;15.466;2024-01-15T04:59:40;-3.02;83.21
68098;DHT22;54886;47.036;15.466;2024-01-15T05:02:06;-3.06;83.18
68098;DHT22;54886;47.036;15.466;2024-01-15T05:04:31;-3.06;83.19
68098;DHT22;54886;47.036;15.466;2024-01-15T05:06:58;-3.04;83.24
68098;DHT22;54886;47.036;15.466;2024-01-15T05:09:23;-3.05;83.18
68098;DHT22;54886;47.036;15.466;2024-01-15T05:11:48;-3.02;83.19
68098;DHT22;54886;47.036;15.466;2024-01-15T05:14:14;-3.06;83.07
68098;DHT22;54886;47.036;15.466;2024-01-15T05:16:40;-3.04;83.21
68098;DHT22;54886;47.036;15.466;2024-01-15T05:19:11;-3.02;83.28
68098;DHT22;54886;47.036;15.466;2024-01-15T05:21:36;-3.06;83.34
68098;DHT22;54886;47.036;15.466;2024-01-15T05:24:02;-3.08;83.29
68098;DHT22;54886;47.036;15.466;2024-01-15T05:26:27;-3.11;83.37
68098;DHT22;54886;47.036;15.466;2024-01-15T05:28:52;-3.05;83.11
68098;DHT22;54886;47.036;15.466;2024-01-15T05:31:18;-3.04;83.11
68098;DHT22;54886;47.036;15.466;2024-01-15T05:33:43;-3.06;83.03
68098;DHT22;54886;47.036;15.466;2024-01-15T05:36:08;-3.15;82.88
68098;DHT22;54886;47.036;15.466;2024-01-15T05:38:34;-3.13;82.99
68098;DHT22;54886;47.036;15.466;2024-01-15T05:40:59;-3.13;82.78
68098;DHT22;54886;47.036;15.466;2024-01-15T05:43:24;-3.13;82.94
68098;DHT22;54886;47.036;15.466;2024-01-15T05:45:50;-3.11;82.84
68098;DHT22;54886;47.036;15.466;2024-01-15T05:48:15;-3.19;82.57
68098;DHT22;54886;47.036;15.466;2024-01-15T05:50:41;-3.17;82.77
68098;DHT22;54886;47.036;15.466;2024-01-15T05:53:06;-3.22;82.59
68098;DHT22;54886;47.036;15.466;2024-01-15T05:55:32;-3.19;82.67
68098;DHT22;54886;47.036;15.466;2024-01-15T05:57:57;-3.17;82.56
68098;DHT22;54886;47.036;15.466;2024-01-15T06:00:23;-3.24;82.42
68098;DHT22;54886;47.036;15.466;2024-01-15T06:02:48;-3.29;82.31
68098;DHT22;54886;47.036;15.466;2024-01-15T06:05:13;-3.24;82.29
68098;DHT22;54886;47.036;15.466;2024-01-15T06:07:39;-3.30;82.45
68098;DHT22;54886;47.036;15.466;2024-01-15T06:10:04;-3.29;82.45
68098;DHT22;54886;47.036;15.466;2024-01-15T06:12:30;-3.28;82.35
68098;DHT22;54886;47.036;15.466;2024-01-15T06:14:56;-3.33;82.36
68098;DHT22;54886;47.036;15.466;2024-01-15T06:17:21;-3.35;82.27
68098;DHT22;54886;47.036;15.466;2024-01-15T06:19:46;-3.36;82.04
68098;DHT22;54886;47.036;15.466;2024-01-15T06:22:12;-3.35;82.59
68098;DHT22;54886;47.036;15.466;2024-01-15T06:24:37;-3.35;81.86
68098;DHT22;54886;47.036;15.466;2024-01-15T06:27:03;-3.38;81.70
68098;DHT22;54886;47.036;15.466;2024-01-15T06:29:28;-3.40;81.55
68098;DHT22;54886;47.036;15.466;2024-01-15T06:31:54;-3.43;81.55
68098;DHT22;54886;47.036;15.466;2024-01-15T06:34:19;-3.43;81.54
68098;DHT22;54886;47.036;15.466;2024-01-15T06:36:44;-3.44;81.58
68098;DHT22;54886;47.036;15.466;2024-01-15T06:39:10;-3.53;81.17
68098;DHT22;54886;47.036;15.466;2024-01-15T06:41:36;-3.60;80.79
68098;DHT22;54886;47.036;15.466;2024-01-15T06:44:08;-3.57;81.00
68098;DHT22;54886;47.036;15.466;2024-01-15T06:46:34;-3.61;80.94
68098;DHT22;54886;47.036;15.466;2024-01-15T06:48:59;-3.66;80.87
68098;DHT22;54886;47.036;15.466;2024-01-15T06:51:25;-3.68;80.98
68098;DHT22;54886;47.036;15.466;2024-01-15T06:53:50;-3.71;80.92
68098;DHT22;54886;47.036;15.466;2024-01-15T06:56:15;-3.67;81.23
68098;DHT22;54886;47.036;15.466;2024-01-15T06:58:41;-3.73;80.94
68098;DHT22;54886;47.036;15.466;2024-01-15T07:01:06;-3.73;80.94
68098;DHT22;54886;47.036;15.466;2024-01-15T07:03:33;-3.78;80.85
68098;DHT22;54886;47.036;15.466;2024-01-15T07:05:58;-3.74;80.88
68098;DHT22;54886;47.036;15.466;2024-01-15T07:08:23;-3.75;80.93
68098;DHT22;54886;47.036;15.466;2024-01-15T07:10:49;-3.84;80.65
68098;DHT22;54886;47.036;15.466;2024-01-15T07:13:14;-3.77;81.07
68098;DHT22;54886;47.036;15.466;2024-01-15T07:15:40;-3.77;80.97
68098;DHT22;54886;47.036;15.466;2024-01-15T07:18:05;-3.75;81.08
68098;DHT22;54886;47.036;15.466;2024-01-15T07:20:30;-3.82;80.82
68098;DHT22;54886;47.036;15.466;2024-01-15T07:22:56;-3.89;81.48
68098;DHT22;54886;47.036;15.466;2024-01-15T07:25:22;-3.87;81.52
68098;DHT22;54886;47.036;15.466;2024-01-15T07:27:47;-3.87;81.53
68098;DHT22;54886;47.036;15.466;2024-01-15T07:30:13;-3.89;81.67
68098;DHT22;54886;47.036;15.466;2024-01-15T07:32:39;-3.85;81.64
68098;DHT22;54886;47.036;15.466;2024-01-15T07:35:04;-3.79;81.57
68098;DHT22;54886;47.036;15.466;2024-01-15T07:37:31;-3.79;81.51
68098;DHT22;54886;47.036;15.466;2024-01-15T07:39:56;-3.79;81.60
68098;DHT22;54886;47.036;15.466;2024-01-15T07:42:22;-3.78;81.93
68098;DHT22;54886;47.036;15.466;2024-01-15T07:44:47;-3.77;82.45
68098;DHT22;54886;47.036;15.466;2024-01-15T07:47:12;-3.73;82.24
68098;DHT22;54886;47.036;15.466;2024-01-15T07:49:38;-3.73;82.28
68098;DHT22;54886;47.036;15.466;2024-01-15T07:52:04;-3.66;82.22
68098;DHT22;54886;47.036;15.466;2024-01-15T07:54:31;-3.70;82.41
68098;DHT22;54886;47.036;15.466;2024-01-15T07:57:00;-3.66;82.52
68098;DHT22;54886;47.036;15.466;2024-01-15T07:59:27;-3.61;82.38
68098;DHT22;54886;47.036;15.466;2024-01-15T08:01:53;-3.61;82.53
68098;DHT22;54886;47.036;15.466;2024-01-15T08:04:19;-3.58;82.54
68098;DHT22;54886;47.036;15.466;2024-01-15T08:06:45;-3.53;82.58
68098;DHT22;54886;47.036;15.466;2024-01-15T08:09:11;-3.51;82.71
68098;DHT22;54886;47.036;15.466;2024-01-15T08:11:41;-3.49;82.56
68098;DHT22;54886;47.036;15.466;2024-01-15T08:14:07;-3.46;82.87
68098;DHT22;54886;47.036;15.466;2024-01-15T08:16:33;-3.43;82.67
68098;DHT22;54886;47.036;15.466;2024-01-15T08:18:58;-3.42;82.72
68098;DHT22;54886;47.036;15.466;2024-01-15T08:21:24;-3.40;83.14
68098;DHT22;54886;47.036;15.466;2024-01-15T08:23:50;-3.35;82.79
68098;DHT22;54886;47.036;15.466;2024-01-15T08:26:15;-3.33;83.18
68098;DHT22;54886;47.036;15.466;2024-01-15T08:28:40;-3.30;82.97
68098;DHT22;54886;47.036;15.466;2024-01-15T08:31:06;-3.26;82.94
68098;DHT22;54886;47.036;15.466;2024-01-15T08:33:31;-3.24;83.59
68098;DHT22;54886;47.036;15.466;2024-01-15T08:35:57;-3.20;83.67
68098;DHT22;54886;47.036;15.466;2024-01-15T08:38:22;-3.13;83.73
68098;DHT22;54886;47.036;15.466;2024-01-15T08:40:49;-3.11;83.93
68098;DHT22;54886;47.036;15.466;2024-01-15T08:43:15;-3.08;83.54
68098;DHT22;54886;47.036;15.466;2024-01-15T08:45:40;-3.05;83.30
68098;DHT22;54886;47.036;15.466;2024-01-15T08:48:06;-2.99;83.25
68098;DHT22;54886;47.036;15.466;2024-01-15T08:50:32;-2.92;83.56
68098;DHT22;54886;47.036;15.466;2024-01-15T08:52:58;-2.88;83.65
68098;DHT22;54886;47.036;15.466;2024-01-15T08:55:23;-2.85;83.55
68098;DHT22;54886;47.036;15.466;2024-01-15T08:57:49;-2.81;83.66
68098;DHT22;54886;47.036;15.466;2024-01-15T09:00:15;-2.77;83.54
68098;DHT22;54886;47.036;15.466;2024-01-15T09:02:42;-2.74;83.31
68098;DHT22;54886;47.036;15.466;2024-01-15T09:05:07;-2.71;83.12
68098;DHT22;54886;47.036;15.466;2024-01-15T09:07:33;-2.67;82.96
68098;DHT22;54886;47.036;15.466;2024-01-15T09:09:58;-2.58;82.94
68098;DHT22;54886;47.036;15.466;2024-01-15T09:12:25;-2.54;82.63
68098;DHT22;54886;47.036;15.466;2024-01-15T09:14:50;-2.52;82.64
68098;DHT22;54886;47.036;15.466;2024-01-15T09:17:17;-2.47;82.36
68098;DHT22;54886;47.036;15.466;2024-01-15T09:19:42;-2.45;82.53
68098;DHT22;54886;47.036;15.466;2024-01-15T09:22:08;-2.43;82.45
68098;DHT22;54886;47.036;15.466;2024-01-15T09:24:33;-2.36;82.63
68098;DHT22;54886;47.036;15.466;2024-01-15T09:26:59;-2.29;82.51
68098;DHT22;54886;47.036;15.466;2024-01-15T09:29:25;-2.28;82.53
68098;DHT22;54886;47.036;15.466;2024-01-15T09:31:50;-2.23;82.27
68098;DHT22;54886;47.036;15.466;2024-01-15T09:34:16;-2.15;82.39
68098;DHT22;54886;47.036;15.466;2024-01-15T09:36:41;-2.06;82.70
68098;DHT22;54886;47.036;15.466;2024-01-15T09:39:08;-1.99;82.41
68098;DHT22;54886;47.036;15.466;2024-01-15T09:41:37;-1.97;81.95
68098;DHT22;54886;47.036;15.466;2024-01-15T09:44:06;-1.90;82.15
68098;DHT22;54886;47.036;15.466;2024-01-15T09:46:38;-1.84;81.95
68098;DHT22;54886;47.036;15.466;2024-01-15T09:49:04;-1.78;81.63
68098;DHT22;54886;47.036;15.466;2024-01-15T09:51:31;-1.71;81.88
68098;DHT22;54886;47.036;15.466;2024-01-15T09:53:57;-1.62;81.98
68098;DHT22;54886;47.036;15.466;2024-01-15T09:56:24;-1.59;81.30
68098;DHT22;54886;47.036;15.466;2024-01-15T09:58:50;-1.56;80.89
68098;DHT22;54886;47.036;15.466;2024-01-15T10:01:20;-1.50;80.62
68098;DHT22;54886;47.036;15.466;2024-01-15T10:03:46;-1.46;80.47
68098;DHT22;54886;47.036;15.466;2024-01-15T10:06:15;-1.40;80.60
68098;DHT22;54886;47.036;15.466;2024-01-15T10:08:43;-1.31;80.69
68098;DHT22;54886;47.036;15.466;2024-01-15T10:11:12;-1.25;80.33
68098;DHT22;54886;47.036;15.466;2024-01-15T10:13:38;-1.18;80.04
68098;DHT22;54886;47.036;15.466;2024-01-15T10:16:04;-1.08;79.76
68098;DHT22;54886;47.036;15.466;2024-01-15T10:18:29;-1.01;79.56
68098;DHT22;54886;47.036;15.466;2024-01-15T10:20:56;-0.95;78.76
68098;DHT22;54886;47.036;15.466;2024-01-15T10:23:23;-0.91;77.84
68098;DHT22;54886;47.036;15.466;2024-01-15T10:25:48;-0.84;78.23
68098;DHT22;54886;47.036;15.466;2024-01-15T10:28:14;-0.74;77.72
68098;DHT22;54886;47.036;15.466;2024-01-15T10:30:39;-0.63;77.87
68098;DHT22;54886;47.036;15.466;2024-01-15T10:33:05;-0.59;77.83
68098;DHT22;54886;47.036;15.466;2024-01-15T10:35:32;-0.56;77.91
68098;DHT22;54886;47.036;15.466;2024-01-15T10:38:01;-0.45;77.21
68098;DHT22;54886;47.036;15.466;2024-01-15T10:40:28;-0.28;77.26
68098;DHT22;54886;47.036;15.466;2024-01-15T10:42:54;-0.26;76.27
68098;DHT22;54886;47.036;15.466;2024-01-15T10:45:19;-0.22;76.55
68098;DHT22;54886;47.036;15.466;2024-01-15T10:47:45;-0.19;76.17
68098;DHT22;54886;47.036;15.466;2024-01-15T10:50:11;-0.11;76.23
68098;DHT22;54886;47.036;15.466;2024-01-15T10:52:37;-0.05;76.26
68098;DHT22;54886;47.036;15.466;2024-01-15T10:55:05;-0.01;76.22
68098;DHT22;54886;47.036;15.466;2024-01-15T10:57:30;0.06;75.56
68098;DHT22;54886;47.036;15.466;2024-01-15T10:59:56;0.13;75.92
68098;DHT22;54886;47.036;15.466;2024-01-15T11:02:21;0.16;76.17
68098;DHT22;54886;47.036;15.466;2024-01-15T11:04:48;0.21;75.85
68098;DHT22;54886;47.036;15.466;2024-01-15T11:07:14;0.30;76.01
68098;DHT22;54886;47.036;15.466;2024-01-15T11:09:39;0.30;75.79
68098;DHT22;54886;47.036;15.466;2024-01-15T11:12:12;0.44;75.68
68098;DHT22;54886;47.036;15.466;2024-01-15T11:17:04;0.54;75.06
68098;DHT22;54886;47.036;15.466;2024-01-15T11:19:38;0.61;75.13
68098;DHT22;54886;47.036;15.466;2024-01-15T11:22:10;0.69;74.42
68098;DHT22;54886;47.036;15.466;2024-01-15T11:24:40;0.75;73.81
68098;DHT22;54886;47.036;15.466;2024-01-15T11:27:07;0.79;73.98
68098;DHT22;54886;47.036;15.466;2024-01-15T11:29:37;0.82;73.88
68098;DHT22;54886;47.036;15.466;2024-01-15T11:32:07;0.82;73.84
68098;DHT22;54886;47.036;15.466;2024-01-15T11:34:51;0.82;73.33
68098;DHT22;54886;47.036;15.466;2024-01-15T11:37:18;0.97;72.00
68098;DHT22;54886;47.036;15.466;2024-01-15T11:39:44;1.00;72.30
68098;DHT22;54886;47.036;15.466;2024-01-15T11:42:10;1.03;72.41
68098;DHT22;54886;47.036;15.466;2024-01-15T11:44:40;1.06;72.62
68098;DHT22;54886;47.036;15.466;2024-01-15T11:47:07;1.15;72.56
68098;DHT22;54886;47.036;15.466;2024-01-15T11:50:02;1.13;72.64
68098;DHT22;54886;47.036;15.466;2024-01-15T11:52:35;1.16;72.27
68098;DHT22;54886;47.036;15.466;2024-01-15T11:55:11;1.24;72.84
68098;DHT22;54886;47.036;15.466;2024-01-15T11:57:43;1.28;72.33
68098;DHT22;54886;47.036;15.466;2024-01-15T12:00:10;1.38;71.91
68098;DHT22;54886;47.036;15.466;2024-01-15T12:02:40;1.44;71.54
68098;DHT22;54886;47.036;15.466;2024-01-15T12:05:10;1.48;71.32
68098;DHT22;54886;47.036;15.466;2024-01-15T12:07:41;1.47;71.64
68098;DHT22;54886;47.036;15.466;2024-01-15T12:10:11;1.50;71.52
68098;DHT22;54886;47.036;15.466;2024-01-15T12:15:11;1.52;71.56
68098;DHT22;54886;47.036;15.466;2024-01-15T12:17:36;1.59;70.60
68098;DHT22;54886;47.036;15.466;2024-01-15T12:20:04;1.59;71.31
68098;DHT22;54886;47.036;15.466;2024-01-15T12:22:29;1.62;71.45
68098;DHT22;54886;47.036;15.466;2024-01-15T12:24:55;1.71;70.87
68098;DHT22;54886;47.036;15.466;2024-01-15T12:27:21;1.74;70.64
68098;DHT22;54886;47.036;15.466;2024-01-15T12:29:46;1.76;70.68
68098;DHT22;54886;47.036;15.466;2024-01-15T12:32:12;1.85;69.58
68098;DHT22;54886;47.036;15.466;2024-01-15T12:34:38;1.86;70.51
68098;DHT22;54886;47.036;15.466;2024-01-15T12:37:04;1.85;70.98
68098;DHT22;54886;47.036;15.466;2024-01-15T12:39:29;1.87;71.15
68098;DHT22;54886;47.036;15.466;2024-01-15T12:41:55;1.87;70.92
68098;DHT22;54886;47.036;15.466;2024-01-15T12:44:20;1.87;71.54
68098;DHT22;54886;47.036;15.466;2024-01-15T12:46:46;1.95;71.56
68098;DHT22;54886;47.036;15.466;2024-01-15T12:49:13;1.96;70.96
68098;DHT22;54886;47.036;15.466;2024-01-15T12:51:38;1.95;71.52
68098;DHT22;54886;47.036;15.466;2024-01-15T12:54:04;1.98;71.64
68098;DHT22;54886;47.036;15.466;2024-01-15T12:56:29;2.05;71.51
68098;DHT22;54886;47.036;15.466;2024-01-15T12:58:55;2.17;70.99
68098;DHT22;54886;47.036;15.466;2024-01-15T13:01:20;2.23;70.43
68098;DHT22;54886;47.036;15.466;2024-01-15T13:03:46;2.28;70.41
68098;DHT22;54886;47.036;15.466;2024-01-15T13:06:12;2.28;70.82
68098;DHT22;54886;47.036;15.466;2024-01-15T13:08:38;2.31;70.79
68098;DHT22;54886;47.036;15.466;2024-01-15T13:11:03;2.37;69.48
68098;DHT22;54886;47.036;15.466;2024-01-15T13:13:29;2.41;69.54
68098;DHT22;54886;47.036;15.466;2024-01-15T13:15:55;2.45;69.92
68098;DHT22;54886;47.036;15.466;2024-01-15T13:18:21;2.41;69.74
68098;DHT22;54886;47.036;15.466;2024-01-15T13:20:46;2.47;69.42
68098;DHT22;54886;47.036;15.466;2024-01-15T13:23:12;2.48;69.24
68098;DHT22;54886;47.036;15.466;2024-01-15T13:25:37;2.48;68.98
68098;DHT22;54886;47.036;15.466;2024-01-15T13:28:04;2.52;69.44
68098;DHT22;54886;47.036;15.466;2024-01-15T13:30:30;2.56;68.82
68098;DHT22;54886;47.036;15.466;2024-01-15T13:32:56;2.59;69.26
68098;DHT22;54886;47.036;15.466;2024-01-15T13:35:22;2.64;69.42
68098;DHT22;54886;47.036;15.466;2024-01-15T13:37:48;2.68;69.24
68098;DHT22;54886;47.036;15.466;2024-01-15T13:40:13;2.69;68.67
68098;DHT22;54886;47.036;15.466;2024-01-15T13:42:45;2.75;69.39
68098;DHT22;54886;47.036;15.466;2024-01-15T13:45:11;2.76;68.88
68098;DHT22;54886;47.036;15.466;2024-01-15T13:47:40;2.78;68.56
68098;DHT22;54886;47.036;15.466;2024-01-15T13:50:06;2.82;67.37
68098;DHT22;54886;47.036;15.466;2024-01-15T13:52:32;2.85;67.68
68098;DHT22;54886;47.036;15.466;2024-01-15T13:54:57;2.86;67.64
68098;DHT22;54886;47.036;15.466;2024-01-15T13:57:22;2.86;68.42
68098;DHT22;54886;47.036;15.466;2024-01-15T13:59:48;2.93;67.50
68098;DHT22;54886;47.036;15.466;2024-01-15T14:02:14;2.96;68.11
68098;DHT22;54886;47.036;15.466;2024-01-15T14:04:40;3.04;66.96
68098;DHT22;54886;47.036;15.466;2024-01-15T14:07:06;3.14;66.42
68098;DHT22;54886;47.036;15.466;2024-01-15T14:09:32;3.16;67.00
68098;DHT22;54886;47.036;15.466;2024-01-15T14:11:57;3.11;67.61
68098;DHT22;54886;47.036;15.466;2024-01-15T14:14:22;3.09;67.70
68098;DHT22;54886;47.036;15.466;2024-01-15T14:16:49;3.13;66.67
68098;DHT22;54886;47.036;15.466;2024-01-15T14:19:14;3.09;67.53
68098;DHT22;54886;47.036;15.466;2024-01-15T14:21:40;3.10;66.76
68098;DHT22;54886;47.036;15.466;2024-01-15T14:24:06;3.06;67.35
68098;DHT22;54886;47.036;15.466;2024-01-15T14:26:31;3.06;67.31
68098;DHT22;54886;47.036;15.466;2024-01-15T14:28:57;3.07;67.17
68098;DHT22;54886;47.036;15.466;2024-01-15T14:31:24;3.04;67.37
68098;DHT22;54886;47.036;15.466;2024-01-15T14:33:52;3.00;67.74
68098;DHT22;54886;47.036;15.466;2024-01-15T14:36:17;3.00;67.65
68098;DHT22;54886;47.036;15.466;2024-01-15T14:38:42;2.99;68.09
68098;DHT22;54886;47.036;15.466;2024-01-15T14:41:08;2.96;68.12
68098;DHT22;54886;47.036;15.466;2024-01-15T14:43:33;2.95;68.08
68098;DHT22;54886;47.036;15.466;2024-01-15T14:45:58;2.95;68.74
68098;DHT22;54886;47.036;15.466;2024-01-15T14:48:24;2.92;68.76
68098;DHT22;54886;47.036;15.466;2024-01-15T14:50:50;2.92;69.15
68098;DHT22;54886;47.036;15.466;2024-01-15T14:53:16;2.89;68.66
68098;DHT22;54886;47.036;15.466;2024-01-15T14:55:42;2.91;68.90
68098;DHT22;54886;47.036;15.466;2024-01-15T14:58:07;2.86;68.98
68098;DHT22;54886;47.036;15.466;2024-01-15T15:00:33;2.85;69.58
68098;DHT22;54886;47.036;15.466;2024-01-15T15:02:58;2.82;69.75
68098;DHT22;54886;47.036;15.466;2024-01-15T15:05:24;2.85;70.14
68098;DHT22;54886;47.036;15.466;2024-01-15T15:07:50;2.81;69.09
68098;DHT22;54886;47.036;15.466;2024-01-15T15:10:16;2.82;69.17
68098;DHT22;54886;47.036;15.466;2024-01-15T15:12:41;2.82;69.50
68098;DHT22;54886;47.036;15.466;2024-01-15T15:15:07;2.79;69.91
68098;DHT22;54886;47.036;15.466;2024-01-15T15:17:33;2.78;69.97